createdAt,value
2017-07-24T00:00:39.593Z,99728.21
2017-07-24T00:03:43.198Z,99719.09
2017-07-24T00:06:46.509Z,99714.92
2017-07-24T00:09:49.876Z,99705.86
2017-07-24T00:12:53.153Z,99708.72
2017-07-24T00:15:56.480Z,99694.37
2017-07-24T00:18:59.782Z,99695.66
2017-07-24T00:22:03.902Z,99691.41
2017-07-24T00:25:08.012Z,99686.64
2017-07-24T00:28:12.080Z,99689.38
2017-07-24T00:31:15.394Z,99681.59
2017-07-24T00:34:18.700Z,99688.66
2017-07-24T00:37:22.024Z,99678.20
2017-07-24T00:40:26.066Z,99673.62
2017-07-24T00:43:29.373Z,99676.72
2017-07-24T00:46:32.649Z,99657.23
2017-07-24T00:49:35.992Z,99657.11
2017-07-24T00:52:41.070Z,99645.59
2017-07-24T00:55:44.402Z,99646.21
2017-07-24T00:58:47.728Z,99642.52
2017-07-24T01:01:51.009Z,99639.67
2017-07-24T01:04:54.347Z,99631.34
2017-07-24T01:07:58.396Z,99637.42
2017-07-24T01:11:01.739Z,99634.97
2017-07-24T01:14:05.013Z,99641.05
2017-07-24T01:17:08.330Z,99633.88
2017-07-24T01:20:12.013Z,99631.53
2017-07-24T01:23:15.313Z,99621.75
2017-07-24T01:26:18.622Z,99625.16
2017-07-24T01:29:21.902Z,99617.20
2017-07-24T01:32:25.236Z,99618.19
2017-07-24T01:35:29.303Z,99615.99
2017-07-24T01:38:32.612Z,99610.17
2017-07-24T01:41:36.025Z,99611.89
2017-07-24T01:44:39.305Z,99606.19
2017-07-24T01:47:42.622Z,99606.59
2017-07-24T01:50:45.909Z,99595.03
2017-07-24T01:53:50.198Z,99586.09
2017-07-24T01:56:53.498Z,99590.01
2017-07-24T01:59:56.828Z,99587.34
2017-07-24T02:03:00.108Z,99585.34
2017-07-24T02:06:03.450Z,99585.13
2017-07-24T02:09:06.780Z,99585.66
2017-07-24T02:12:10.076Z,99573.40
2017-07-24T02:15:13.404Z,99572.28
2017-07-24T02:18:16.682Z,99567.02
2017-07-24T02:21:19.995Z,99570.28
2017-07-24T02:24:23.296Z,99561.59
2017-07-24T02:27:26.611Z,99552.41
2017-07-24T02:30:30.687Z,99553.58
2017-07-24T02:33:33.993Z,99550.70
2017-07-24T02:36:37.311Z,99556.11
2017-07-24T02:39:40.593Z,99551.34
2017-07-24T02:42:43.906Z,99545.66
2017-07-24T02:45:47.189Z,99548.12
2017-07-24T02:48:50.494Z,99547.36
2017-07-24T02:51:54.746Z,99552.48
2017-07-24T02:54:59.039Z,99551.44
2017-07-24T02:58:02.355Z,99551.56
2017-07-24T03:01:05.630Z,99556.27
2017-07-24T03:04:09.727Z,99561.26
2017-07-24T03:07:13.006Z,99559.27
2017-07-24T03:10:16.318Z,99560.16
2017-07-24T03:13:20.517Z,99546.52
2017-07-24T03:16:23.817Z,99539.64
2017-07-24T03:19:27.130Z,99543.28
2017-07-24T03:22:31.341Z,99534.10
2017-07-24T03:25:34.650Z,99539.22
2017-07-24T03:28:38.712Z,99535.87
2017-07-24T03:31:42.018Z,99540.97
2017-07-24T03:34:45.320Z,99534.47
2017-07-24T03:37:48.652Z,99538.97
2017-07-24T03:40:52.745Z,99541.62
2017-07-24T03:43:56.049Z,99544.32
2017-07-24T03:46:59.379Z,99542.10
2017-07-24T03:50:02.657Z,99534.52
2017-07-24T03:53:06.726Z,99539.87
2017-07-24T03:56:10.029Z,99542.88
2017-07-24T03:59:13.348Z,99542.91
2017-07-24T04:02:16.783Z,99547.92
2017-07-24T04:05:20.073Z,99540.84
2017-07-24T04:08:23.405Z,99533.95
2017-07-24T04:11:26.704Z,99527.61
2017-07-24T04:14:30.050Z,99527.56
2017-07-24T04:17:34.096Z,99532.48
2017-07-24T04:20:37.419Z,99524.61
2017-07-24T04:23:40.730Z,99513.20
2017-07-24T04:26:44.067Z,99510.73
2017-07-24T04:29:47.713Z,99508.02
2017-07-24T04:32:50.989Z,99512.43
2017-07-24T04:35:54.428Z,99499.80
2017-07-24T04:38:57.702Z,99494.06
2017-07-24T04:42:01.043Z,99497.50
2017-07-24T04:45:05.082Z,99500.02
2017-07-24T04:48:08.410Z,99492.84
2017-07-24T04:51:11.689Z,99487.23
2017-07-24T04:54:15.029Z,99493.61
2017-07-24T04:57:19.209Z,99500.17
2017-07-24T05:00:22.481Z,99491.63
2017-07-24T05:03:25.787Z,99489.92
2017-07-24T05:06:29.059Z,99484.81
2017-07-24T05:09:32.583Z,99487.10
2017-07-24T05:12:35.890Z,99481.27
2017-07-24T05:15:39.202Z,99490.42
2017-07-24T05:18:42.544Z,99480.14
2017-07-24T05:21:45.822Z,99486.32
2017-07-24T05:24:49.903Z,99482.34
2017-07-24T05:27:53.187Z,99487.67
2017-07-24T05:30:56.516Z,99483.47
2017-07-24T05:33:59.798Z,99477.17
2017-07-24T05:37:03.109Z,99487.19
2017-07-24T05:40:06.418Z,99479.84
2017-07-24T05:43:10.484Z,99473.44
2017-07-24T05:46:13.813Z,99477.38
2017-07-24T05:49:17.096Z,99480.19
2017-07-24T05:52:20.410Z,99475.61
2017-07-24T05:55:23.689Z,99479.28
2017-07-24T05:58:26.997Z,99470.65
2017-07-24T06:01:30.570Z,99474.99
2017-07-24T06:04:33.859Z,99470.27
2017-07-24T06:07:37.199Z,99469.12
2017-07-24T06:10:41.269Z,99466.37
2017-07-24T06:13:44.602Z,99467.29
2017-07-24T06:16:47.905Z,99475.44
2017-07-24T06:19:52.005Z,99474.22
2017-07-24T06:22:55.492Z,99470.11
2017-07-24T06:25:58.797Z,99462.66
2017-07-24T06:29:02.133Z,99459.08
2017-07-24T06:32:05.437Z,99472.70
2017-07-24T06:35:08.738Z,99466.02
2017-07-24T06:38:12.011Z,99464.88
2017-07-24T06:41:15.322Z,99459.10
2017-07-24T06:44:18.625Z,99458.34
2017-07-24T06:47:21.966Z,99462.58
2017-07-24T06:50:25.274Z,99455.75
2017-07-24T06:53:28.586Z,99454.84
2017-07-24T06:56:32.789Z,99455.09
2017-07-24T06:59:36.065Z,99455.39
2017-07-24T07:02:39.377Z,99461.13
2017-07-24T07:05:42.679Z,99468.05
2017-07-24T07:08:46.773Z,99464.70
2017-07-24T07:11:50.048Z,99463.66
2017-07-24T07:14:53.357Z,99463.64
2017-07-24T07:17:56.657Z,99461.17
2017-07-24T07:20:59.993Z,99463.80
2017-07-24T07:24:03.296Z,99467.14
2017-07-24T07:27:06.614Z,99463.83
2017-07-24T07:30:09.886Z,99462.18
2017-07-24T07:33:13.197Z,99468.55
2017-07-24T07:36:16.528Z,99462.16
2017-07-24T07:39:19.830Z,99460.31
2017-07-24T07:42:23.137Z,99449.91
2017-07-24T07:45:27.179Z,99459.88
2017-07-24T07:48:30.519Z,99456.52
2017-07-24T07:51:33.794Z,99454.80
2017-07-24T07:54:37.101Z,99457.96
2017-07-24T07:57:40.458Z,99452.91
2017-07-24T08:00:43.765Z,99455.02
2017-07-24T08:03:47.060Z,99452.62
2017-07-24T08:06:50.444Z,99441.55
2017-07-24T08:09:53.722Z,99445.30
2017-07-24T08:12:57.798Z,99440.55
2017-07-24T08:16:01.132Z,99443.07
2017-07-24T08:19:05.205Z,99450.91
2017-07-24T08:22:08.647Z,99451.27
2017-07-24T08:25:11.964Z,99457.37
2017-07-24T08:28:15.277Z,99451.36
2017-07-24T08:31:18.557Z,99458.16
2017-07-24T08:34:21.886Z,99452.27
2017-07-24T08:37:25.331Z,99455.52
2017-07-24T08:40:29.405Z,99456.11
2017-07-24T08:43:32.679Z,99453.00
2017-07-24T08:46:36.019Z,99451.12
2017-07-24T08:49:39.457Z,99454.52
2017-07-24T08:52:42.754Z,99445.98
2017-07-24T08:55:46.171Z,99451.39
2017-07-24T08:58:49.574Z,99440.92
2017-07-24T09:01:53.000Z,99451.98
2017-07-24T09:04:57.370Z,99451.13
2017-07-24T09:08:00.692Z,99453.22
2017-07-24T09:11:04.002Z,99446.98
2017-07-24T09:14:07.278Z,99449.38
2017-07-24T09:17:11.525Z,99445.59
2017-07-24T09:20:14.827Z,99446.94
2017-07-24T09:23:18.147Z,99456.39
2017-07-24T09:26:22.422Z,99448.92
2017-07-24T09:29:25.724Z,99452.47
2017-07-24T09:32:29.060Z,99460.48
2017-07-24T09:35:33.318Z,99454.98
2017-07-24T09:38:36.661Z,99446.97
2017-07-24T09:41:40.737Z,99452.72
2017-07-24T09:44:44.073Z,99447.16
2017-07-24T09:47:48.123Z,99460.84
2017-07-24T09:50:51.430Z,99451.19
2017-07-24T09:53:54.864Z,99456.03
2017-07-24T09:56:58.142Z,99451.09
2017-07-24T10:00:01.477Z,99451.81
2017-07-24T10:03:05.545Z,99452.54
2017-07-24T10:06:08.876Z,99455.08
2017-07-24T10:09:12.162Z,99447.81
2017-07-24T10:12:15.472Z,99455.55
2017-07-24T10:15:19.539Z,99448.39
2017-07-24T10:18:22.869Z,99450.48
2017-07-24T10:21:26.143Z,99435.06
2017-07-24T10:24:29.450Z,99437.27
2017-07-24T10:27:32.733Z,99443.63
2017-07-24T10:30:36.050Z,99440.95
2017-07-24T10:33:39.423Z,99433.97
2017-07-24T10:36:42.726Z,99437.17
2017-07-24T10:39:46.058Z,99438.65
2017-07-24T10:42:49.356Z,99435.60
2017-07-24T10:45:52.691Z,99435.41
2017-07-24T10:48:55.995Z,99426.04
2017-07-24T10:51:59.331Z,99430.78
2017-07-24T10:55:02.985Z,99431.29
2017-07-24T10:58:06.262Z,99434.48
2017-07-24T11:01:10.357Z,99435.25
2017-07-24T11:04:13.646Z,99438.46
2017-07-24T11:07:16.959Z,99438.42
2017-07-24T11:10:20.334Z,99439.66
2017-07-24T11:13:23.858Z,99435.95
2017-07-24T11:16:27.317Z,99436.06
2017-07-24T11:19:30.853Z,99428.16
2017-07-24T11:22:34.582Z,99426.44
2017-07-24T11:25:38.835Z,99433.69
2017-07-24T11:28:42.362Z,99427.62
2017-07-24T11:31:45.819Z,99424.20
2017-07-24T11:34:49.224Z,99421.78
2017-07-24T11:37:52.733Z,99424.47
2017-07-24T11:40:56.289Z,99425.45
2017-07-24T11:43:59.707Z,99416.11
2017-07-24T11:47:03.944Z,99417.69
2017-07-24T11:50:07.574Z,99410.36
2017-07-24T11:53:10.881Z,99414.87
2017-07-24T11:56:14.561Z,99415.39
2017-07-24T11:59:17.842Z,99419.17
2017-07-24T12:02:21.924Z,99415.69
2017-07-24T12:05:25.233Z,99421.25
2017-07-24T12:08:28.570Z,99423.46
2017-07-24T12:11:31.877Z,99426.66
2017-07-24T12:14:36.047Z,99431.52
2017-07-24T12:17:40.290Z,99442.66
2017-07-24T12:20:43.624Z,99434.24
2017-07-24T12:23:46.910Z,99433.47
2017-07-24T12:26:50.266Z,99434.83
2017-07-24T12:29:53.586Z,99432.45
2017-07-24T12:32:56.903Z,99429.94
2017-07-24T12:36:00.231Z,99438.14
2017-07-24T12:39:03.530Z,99435.02
2017-07-24T12:42:06.839Z,99439.42
2017-07-24T12:45:10.150Z,99431.77
2017-07-24T12:48:13.514Z,99440.47
2017-07-24T12:51:16.818Z,99432.61
2017-07-24T12:54:20.153Z,99429.59
2017-07-24T12:57:23.430Z,99431.19
2017-07-24T13:00:26.768Z,99432.85
2017-07-24T13:03:30.049Z,99431.73
2017-07-24T13:06:33.357Z,99433.84
2017-07-24T13:09:36.660Z,99431.77
2017-07-24T13:12:39.965Z,99422.74
2017-07-24T13:15:44.449Z,99431.34
2017-07-24T13:18:47.734Z,99432.03
2017-07-24T13:21:51.065Z,99437.36
2017-07-24T13:24:54.369Z,99443.23
2017-07-24T13:27:57.701Z,99432.00
2017-07-24T13:31:00.986Z,99432.85
2017-07-24T13:34:05.079Z,99428.55
2017-07-24T13:37:08.498Z,99440.95
2017-07-24T13:40:11.786Z,99431.52
2017-07-24T13:43:15.862Z,99431.28
2017-07-24T13:46:19.139Z,99438.81
2017-07-24T13:49:22.472Z,99434.17
2017-07-24T13:52:25.777Z,99436.67
2017-07-24T13:55:29.874Z,99432.08
2017-07-24T13:58:33.317Z,99428.94
2017-07-24T14:01:36.597Z,99438.06
2017-07-24T14:04:40.669Z,99433.16
2017-07-24T14:07:43.949Z,99435.51
2017-07-24T14:10:47.261Z,99438.45
2017-07-24T14:13:50.541Z,99443.13
2017-07-24T14:16:53.872Z,99447.67
2017-07-24T14:19:57.173Z,99452.24
2017-07-24T14:23:00.486Z,99449.81
2017-07-24T14:26:04.893Z,99451.85
2017-07-24T14:29:08.945Z,99447.19
2017-07-24T14:32:12.284Z,99445.66
2017-07-24T14:35:15.565Z,99454.21
2017-07-24T14:38:18.886Z,99443.23
2017-07-24T14:41:22.168Z,99449.60
2017-07-24T14:44:25.482Z,99439.90
2017-07-24T14:47:29.052Z,99440.56
2017-07-24T14:50:32.330Z,99439.22
2017-07-24T14:53:35.641Z,99437.80
2017-07-24T14:56:38.922Z,99445.94
2017-07-24T14:59:42.235Z,99440.99
2017-07-24T15:02:45.536Z,99443.70
2017-07-24T15:05:48.850Z,99445.35
2017-07-24T15:08:52.167Z,99441.64
2017-07-24T15:11:56.273Z,99442.75
2017-07-24T15:14:59.572Z,99442.16
2017-07-24T15:18:02.905Z,99456.73
2017-07-24T15:21:06.373Z,99454.45
2017-07-24T15:24:10.430Z,99448.22
2017-07-24T15:27:13.753Z,99453.92
2017-07-24T15:30:17.030Z,99457.47
2017-07-24T15:33:20.343Z,99469.73
2017-07-24T15:36:23.646Z,99469.92
2017-07-24T15:39:26.980Z,99474.18
2017-07-24T15:42:31.022Z,99469.60
2017-07-24T15:45:34.324Z,99474.96
2017-07-24T15:48:38.042Z,99472.21
2017-07-24T15:51:41.323Z,99470.02
2017-07-24T15:54:44.637Z,99471.20
2017-07-24T15:57:47.933Z,99469.75
2017-07-24T16:00:51.273Z,99474.49
2017-07-24T16:03:55.431Z,99478.52
2017-07-24T16:06:58.757Z,99488.52
2017-07-24T16:10:02.046Z,99493.17
2017-07-24T16:13:05.377Z,99494.84
2017-07-24T16:16:09.444Z,99493.55
2017-07-24T16:19:12.761Z,99507.09
2017-07-24T16:22:16.083Z,99497.30
2017-07-24T16:25:20.173Z,99493.94
2017-07-24T16:28:23.596Z,99492.26
2017-07-24T16:31:27.661Z,99493.87
2017-07-24T16:34:30.968Z,99491.30
2017-07-24T16:37:34.241Z,99496.52
2017-07-24T16:40:37.573Z,99504.63
2017-07-24T16:43:40.850Z,99498.83
2017-07-24T16:46:44.187Z,99489.05
2017-07-24T16:49:48.260Z,99486.61
2017-07-24T16:52:51.585Z,99482.75
2017-07-24T16:58:58.445Z,99483.30
2017-07-24T17:02:01.785Z,99472.89
2017-07-24T17:05:05.871Z,99472.70
2017-07-24T17:08:09.198Z,99472.17
2017-07-24T17:11:13.242Z,99482.97
2017-07-24T17:14:16.548Z,99479.83
2017-07-24T17:17:19.849Z,99477.25
2017-07-24T17:20:23.186Z,99484.61
2017-07-24T17:23:26.660Z,99483.72
2017-07-24T17:26:29.995Z,99486.41
2017-07-24T17:29:34.199Z,99475.94
2017-07-24T17:32:37.487Z,99481.44
2017-07-24T17:35:40.829Z,99473.86
2017-07-24T17:38:44.105Z,99474.91
2017-07-24T17:41:48.186Z,99479.44
2017-07-24T17:44:51.605Z,99481.45
2017-07-24T17:47:54.880Z,99483.29
2017-07-24T17:50:58.212Z,99485.66
2017-07-24T17:54:01.512Z,99486.02
2017-07-24T17:57:05.615Z,99491.39
2017-07-24T18:00:09.670Z,99492.06
2017-07-24T18:03:12.984Z,99495.70
2017-07-24T18:06:16.403Z,99497.33
2017-07-24T18:09:19.708Z,99504.52
2017-07-24T18:12:23.017Z,99498.46
2017-07-24T18:15:27.054Z,99491.68
2017-07-24T18:18:30.391Z,99501.22
2017-07-24T18:21:33.678Z,99503.05
2017-07-24T18:24:36.986Z,99509.19
2017-07-24T18:27:40.282Z,99514.05
2017-07-24T18:30:43.619Z,99516.05
2017-07-24T18:33:46.927Z,99523.52
2017-07-24T18:36:50.263Z,99520.53
2017-07-24T18:39:53.737Z,99528.05
2017-07-24T18:42:57.013Z,99526.42
2017-07-24T18:46:00.345Z,99525.70
2017-07-24T18:49:03.670Z,99524.00
2017-07-24T18:52:07.009Z,99532.20
2017-07-24T18:55:10.379Z,99530.11
2017-07-24T18:58:14.452Z,99539.19
2017-07-24T19:01:17.770Z,99537.23
2017-07-24T19:04:21.043Z,99535.13
2017-07-24T19:07:24.385Z,99531.33
2017-07-24T19:10:28.450Z,99536.81
2017-07-24T19:13:31.758Z,99538.20
2017-07-24T19:16:35.058Z,99531.38
2017-07-24T19:19:38.398Z,99534.79
2017-07-24T19:22:41.722Z,99549.63
2017-07-24T19:25:45.013Z,99548.02
2017-07-24T19:28:48.325Z,99551.73
2017-07-24T19:31:51.626Z,99555.79
2017-07-24T19:34:54.961Z,99552.45
2017-07-24T19:37:59.004Z,99556.34
2017-07-24T19:41:02.310Z,99557.27
2017-07-24T19:44:05.591Z,99564.53
2017-07-24T19:47:08.920Z,99560.47
2017-07-24T19:50:12.226Z,99566.09
2017-07-24T19:53:15.546Z,99568.21
2017-07-24T19:56:19.738Z,99562.94
2017-07-24T19:59:23.043Z,99570.06
2017-07-24T20:02:26.366Z,99567.64
2017-07-24T20:05:29.663Z,99555.49
2017-07-24T20:08:33.740Z,99569.08
2017-07-24T20:11:37.020Z,99564.75
2017-07-24T20:14:40.352Z,99563.23
2017-07-24T20:17:43.685Z,99559.83
2017-07-24T20:20:47.019Z,99565.02
2017-07-24T20:23:50.349Z,99566.30
2017-07-24T20:26:54.526Z,99564.19
2017-07-24T20:29:57.830Z,99566.65
2017-07-24T20:33:01.129Z,99569.94
2017-07-24T20:36:05.539Z,99563.58
2017-07-24T20:39:09.613Z,99570.80
2017-07-24T20:42:12.944Z,99558.69
2017-07-24T20:45:16.251Z,99557.62
2017-07-24T20:48:19.576Z,99566.47
2017-07-24T20:51:22.922Z,99559.51
2017-07-24T20:54:26.242Z,99567.72
2017-07-24T20:57:29.576Z,99563.66
2017-07-24T21:00:32.886Z,99568.67
2017-07-24T21:03:36.216Z,99565.83
2017-07-24T21:06:39.520Z,99566.52
2017-07-24T21:09:42.829Z,99563.89
2017-07-24T21:12:46.925Z,99571.22
2017-07-24T21:15:50.221Z,99566.73
2017-07-24T21:18:53.553Z,99563.95
2017-07-24T21:21:56.848Z,99570.05
2017-07-24T21:25:00.176Z,99562.28
2017-07-24T21:28:03.595Z,99568.28
2017-07-24T21:31:06.873Z,99563.93
2017-07-24T21:34:10.178Z,99563.83
2017-07-24T21:37:13.457Z,99571.23
2017-07-24T21:40:16.792Z,99568.08
2017-07-24T21:43:20.090Z,99567.73
2017-07-24T21:46:23.428Z,99568.77
2017-07-24T21:49:26.758Z,99571.06
2017-07-24T21:52:30.108Z,99571.19
2017-07-24T21:55:33.417Z,99567.73
2017-07-24T21:58:36.694Z,99572.91
2017-07-24T22:01:40.291Z,99576.98
2017-07-24T22:04:43.855Z,99585.94
2017-07-24T22:07:47.222Z,99579.62
2017-07-24T22:10:50.566Z,99581.66
2017-07-24T22:13:54.136Z,99577.23
2017-07-24T22:16:57.588Z,99582.44
2017-07-24T22:20:01.138Z,99582.34
2017-07-24T22:23:04.504Z,99578.63
2017-07-24T22:26:07.788Z,99583.69
2017-07-24T22:29:11.242Z,99583.30
2017-07-24T22:32:14.569Z,99583.95
2017-07-24T22:35:17.891Z,99580.48
2017-07-24T22:38:21.197Z,99578.23
2017-07-24T22:41:24.538Z,99590.25
2017-07-24T22:44:27.880Z,99577.50
2017-07-24T22:47:31.225Z,99579.89
2017-07-24T22:50:34.528Z,99575.78
2017-07-24T22:53:37.852Z,99572.01
2017-07-24T22:56:41.297Z,99570.37
2017-07-24T22:59:45.369Z,99578.41
2017-07-24T23:02:48.708Z,99566.65
2017-07-24T23:05:52.757Z,99570.37
2017-07-24T23:08:56.092Z,99571.96
2017-07-24T23:11:59.513Z,99578.66
2017-07-24T23:15:03.596Z,99575.41
2017-07-24T23:18:06.936Z,99569.67
2017-07-24T23:21:11.005Z,99576.76
2017-07-24T23:24:14.362Z,99577.19
2017-07-24T23:27:17.650Z,99576.20
2017-07-24T23:30:20.961Z,99574.52
2017-07-24T23:33:24.265Z,99581.30
2017-07-24T23:36:27.582Z,99578.58
2017-07-24T23:39:30.899Z,99570.84
2017-07-24T23:42:34.185Z,99562.28
2017-07-24T23:45:37.525Z,99564.05
2017-07-24T23:48:41.600Z,99580.73
2017-07-24T23:51:44.941Z,99581.16
2017-07-24T23:54:48.249Z,99592.12
2017-07-24T23:57:51.584Z,99589.43
